sensor_id;sensor_type;location;lat;lon;timestamp;P1;durP1;ratioP1;P2;durP2;ratioP2
7031;SDS011;3557;48.880;8.328;2024-01-11T00:00:11;30.00;;;17.27;;
7031;SDS011;3557;48.880;8.328;2024-01-11T00:02:39;30.20;;;17.27;;
7031;SDS011;3557;48.880;8.328;2024-01-11T00:05:09;33.57;;;18.00;;
7031;SDS011;3557;48.880;8.328;2024-01-11T00:07:36;27.83;;;17.17;;
7031;SDS011;3557;48.880;8.328;2024-01-11T00:10:04;28.77;;;16.10;;
7031;SDS011;3557;48.880;8.328;2024-01-11T00:12:32;28.90;;;16.73;;
7031;SDS011;3557;48.880;8.328;2024-01-11T00:14:59;30.30;;;16.73;;
7031;SDS011;3557;48.880;8.328;2024-01-11T00:17:27;30.03;;;16.67;;
7031;SDS011;3557;48.880;8.328;2024-01-11T00:19:54;29.50;;;16.03;;
7031;SDS011;3557;48.880;8.328;2024-01-11T00:22:23;28.17;;;16.80;;
7031;SDS011;3557;48.880;8.328;2024-01-11T00:24:50;28.63;;;17.13;;
7031;SDS011;3557;48.880;8.328;2024-01-11T00:27:18;25.73;;;16.10;;
7031;SDS011;3557;48.880;8.328;2024-01-11T00:29:45;32.33;;;17.50;;
7031;SDS011;3557;48.880;8.328;2024-01-11T00:32:13;30.83;;;17.50;;
7031;SDS011;3557;48.880;8.328;2024-01-11T00:34:40;28.47;;;17.13;;
7031;SDS011;3557;48.880;8.328;2024-01-11T00:37:08;29.63;;;17.33;;
7031;SDS011;3557;48.880;8.328;2024-01-11T00:39:37;32.77;;;18.33;;
7031;SDS011;3557;48.880;8.328;2024-01-11T00:42:04;30.07;;;17.67;;
7031;SDS011;3557;48.880;8.328;2024-01-11T00:44:32;31.53;;;17.17;;
7031;SDS011;3557;48.880;8.328;2024-01-11T00:46:59;29.10;;;16.97;;
7031;SDS011;3557;48.880;8.328;2024-01-11T00:49:26;29.70;;;17.67;;
7031;SDS011;3557;48.880;8.328;2024-01-11T00:51:54;30.57;;;17.43;;
7031;SDS011;3557;48.880;8.328;2024-01-11T00:54:21;30.70;;;18.50;;
7031;SDS011;3557;48.880;8.328;2024-01-11T00:56:51;30.67;;;18.13;;
7031;SDS011;3557;48.880;8.328;2024-01-11T00:59:18;32.90;;;16.83;;
7031;SDS011;3557;48.880;8.328;2024-01-11T01:01:48;32.07;;;17.53;;
7031;SDS011;3557;48.880;8.328;2024-01-11T01:04:16;28.67;;;17.43;;
7031;SDS011;3557;48.880;8.328;2024-01-11T01:06:43;29.23;;;16.63;;
7031;SDS011;3557;48.880;8.328;2024-01-11T01:09:11;37.57;;;17.83;;
7031;SDS011;3557;48.880;8.328;2024-01-11T01:11:38;32.10;;;17.57;;
7031;SDS011;3557;48.880;8.328;2024-01-11T01:14:07;29.40;;;16.93;;
7031;SDS011;3557;48.880;8.328;2024-01-11T01:16:34;29.80;;;17.00;;
7031;SDS011;3557;48.880;8.328;2024-01-11T01:19:02;30.67;;;17.83;;
7031;SDS011;3557;48.880;8.328;2024-01-11T01:21:29;30.23;;;17.63;;
7031;SDS011;3557;48.880;8.328;2024-01-11T01:23:56;30.80;;;17.43;;
7031;SDS011;3557;48.880;8.328;2024-01-11T01:26:24;31.13;;;17.67;;
7031;SDS011;3557;48.880;8.328;2024-01-11T01:28:51;28.97;;;17.40;;
7031;SDS011;3557;48.880;8.328;2024-01-11T01:31:21;30.47;;;17.93;;
7031;SDS011;3557;48.880;8.328;2024-01-11T01:33:48;28.70;;;16.60;;
7031;SDS011;3557;48.880;8.328;2024-01-11T01:36:15;30.73;;;17.77;;
7031;SDS011;3557;48.880;8.328;2024-01-11T01:38:43;35.23;;;18.80;;
7031;SDS011;3557;48.880;8.328;2024-01-11T01:41:10;32.80;;;18.37;;
7031;SDS011;3557;48.880;8.328;2024-01-11T01:43:37;30.87;;;17.40;;
7031;SDS011;3557;48.880;8.328;2024-01-11T01:46:05;32.33;;;17.73;;
7031;SDS011;3557;48.880;8.328;2024-01-11T01:48:34;30.40;;;17.47;;
7031;SDS011;3557;48.880;8.328;2024-01-11T01:51:01;29.30;;;17.33;;
7031;SDS011;3557;48.880;8.328;2024-01-11T01:53:29;31.63;;;18.00;;
7031;SDS011;3557;48.880;8.328;2024-01-11T01:55:57;31.20;;;18.00;;
7031;SDS011;3557;48.880;8.328;2024-01-11T01:58:24;32.00;;;18.23;;
7031;SDS011;3557;48.880;8.328;2024-01-11T02:00:51;30.53;;;17.43;;
7031;SDS011;3557;48.880;8.328;2024-01-11T02:03:19;28.43;;;17.13;;
7031;SDS011;3557;48.880;8.328;2024-01-11T02:05:48;30.87;;;17.50;;
7031;SDS011;3557;48.880;8.328;2024-01-11T02:08:18;30.87;;;16.70;;
7031;SDS011;3557;48.880;8.328;2024-01-11T02:10:49;30.27;;;17.00;;
7031;SDS011;3557;48.880;8.328;2024-01-11T02:13:16;31.80;;;17.20;;
7031;SDS011;3557;48.880;8.328;2024-01-11T02:15:44;30.83;;;17.17;;
7031;SDS011;3557;48.880;8.328;2024-01-11T02:18:12;33.03;;;17.47;;
7031;SDS011;3557;48.880;8.328;2024-01-11T02:20:39;28.47;;;16.90;;
7031;SDS011;3557;48.880;8.328;2024-01-11T02:23:09;31.33;;;17.20;;
7031;SDS011;3557;48.880;8.328;2024-01-11T02:25:42;31.67;;;17.73;;
7031;SDS011;3557;48.880;8.328;2024-01-11T02:28:09;33.30;;;18.23;;
7031;SDS011;3557;48.880;8.328;2024-01-11T02:30:37;31.27;;;17.67;;
7031;SDS011;3557;48.880;8.328;2024-01-11T02:33:04;32.63;;;18.00;;
7031;SDS011;3557;48.880;8.328;2024-01-11T02:35:32;31.20;;;17.33;;
7031;SDS011;3557;48.880;8.328;2024-01-11T02:38:02;30.93;;;16.97;;
7031;SDS011;3557;48.880;8.328;2024-01-11T02:40:30;29.97;;;17.07;;
7031;SDS011;3557;48.880;8.328;2024-01-11T02:42:59;30.90;;;17.97;;
7031;SDS011;3557;48.880;8.328;2024-01-11T02:45:34;28.73;;;17.60;;
7031;SDS011;3557;48.880;8.328;2024-01-11T02:48:02;28.50;;;16.70;;
7031;SDS011;3557;48.880;8.328;2024-01-11T02:50:30;30.33;;;16.60;;
7031;SDS011;3557;48.880;8.328;2024-01-11T02:52:57;33.67;;;18.03;;
7031;SDS011;3557;48.880;8.328;2024-01-11T02:55:24;29.53;;;16.67;;
7031;SDS011;3557;48.880;8.328;2024-01-11T02:57:51;33.23;;;18.60;;
7031;SDS011;3557;48.880;8.328;2024-01-11T03:00:20;31.97;;;17.33;;
7031;SDS011;3557;48.880;8.328;2024-01-11T03:02:47;35.93;;;17.60;;
7031;SDS011;3557;48.880;8.328;2024-01-11T03:05:15;30.33;;;17.43;;
7031;SDS011;3557;48.880;8.328;2024-01-11T03:07:42;32.23;;;18.53;;
7031;SDS011;3557;48.880;8.328;2024-01-11T03:10:09;30.00;;;17.57;;
7031;SDS011;3557;48.880;8.328;2024-01-11T03:12:37;32.27;;;17.97;;
7031;SDS011;3557;48.880;8.328;2024-01-11T03:15:06;30.37;;;17.40;;
7031;SDS011;3557;48.880;8.328;2024-01-11T03:17:36;32.60;;;18.50;;
7031;SDS011;3557;48.880;8.328;2024-01-11T03:20:03;30.73;;;17.60;;
7031;SDS011;3557;48.880;8.328;2024-01-11T03:22:31;33.97;;;17.40;;
7031;SDS011;3557;48.880;8.328;2024-01-11T03:24:59;31.07;;;17.67;;
7031;SDS011;3557;48.880;8.328;2024-01-11T03:27:26;29.13;;;16.90;;
7031;SDS011;3557;48.880;8.328;2024-01-11T03:29:53;34.77;;;18.37;;
7031;SDS011;3557;48.880;8.328;2024-01-11T03:32:21;29.17;;;17.17;;
7031;SDS011;3557;48.880;8.328;2024-01-11T03:34:50;31.73;;;17.80;;
7031;SDS011;3557;48.880;8.328;2024-01-11T03:37:17;34.53;;;18.80;;
7031;SDS011;3557;48.880;8.328;2024-01-11T03:39:45;28.67;;;17.70;;
7031;SDS011;3557;48.880;8.328;2024-01-11T03:42:12;28.70;;;17.13;;
7031;SDS011;3557;48.880;8.328;2024-01-11T03:44:40;29.13;;;17.17;;
7031;SDS011;3557;48.880;8.328;2024-01-11T03:47:07;33.07;;;18.27;;
7031;SDS011;3557;48.880;8.328;2024-01-11T03:49:35;33.60;;;18.07;;
7031;SDS011;3557;48.880;8.328;2024-01-11T03:52:04;30.37;;;17.07;;
7031;SDS011;3557;48.880;8.328;2024-01-11T03:54:32;30.13;;;18.20;;
7031;SDS011;3557;48.880;8.328;2024-01-11T03:56:59;32.67;;;16.97;;
7031;SDS011;3557;48.880;8.328;2024-01-11T03:59:26;31.87;;;18.20;;
7031;SDS011;3557;48.880;8.328;2024-01-11T04:01:53;29.83;;;17.30;;
7031;SDS011;3557;48.880;8.328;2024-01-11T04:04:21;31.73;;;17.60;;
7031;SDS011;3557;48.880;8.328;2024-01-11T04:06:49;32.60;;;17.93;;
7031;SDS011;3557;48.880;8.328;2024-01-11T04:09:18;33.93;;;17.97;;
7031;SDS011;3557;48.880;8.328;2024-01-11T04:11:46;30.70;;;16.93;;
7031;SDS011;3557;48.880;8.328;2024-01-11T04:14:13;31.77;;;17.77;;
7031;SDS011;3557;48.880;8.328;2024-01-11T04:16:41;32.90;;;18.27;;
7031;SDS011;3557;48.880;8.328;2024-01-11T04:19:09;33.63;;;17.00;;
7031;SDS011;3557;48.880;8.328;2024-01-11T04:21:36;35.00;;;17.60;;
7031;SDS011;3557;48.880;8.328;2024-01-11T04:24:04;33.20;;;18.23;;
7031;SDS011;3557;48.880;8.328;2024-01-11T04:26:33;33.43;;;17.97;;
7031;SDS011;3557;48.880;8.328;2024-01-11T04:29:01;32.40;;;18.50;;
7031;SDS011;3557;48.880;8.328;2024-01-11T04:31:28;32.17;;;18.40;;
7031;SDS011;3557;48.880;8.328;2024-01-11T04:33:55;36.87;;;19.67;;
7031;SDS011;3557;48.880;8.328;2024-01-11T04:36:23;33.40;;;18.17;;
7031;SDS011;3557;48.880;8.328;2024-01-11T04:38:50;34.40;;;18.57;;
7031;SDS011;3557;48.880;8.328;2024-01-11T04:41:17;31.03;;;18.30;;
7031;SDS011;3557;48.880;8.328;2024-01-11T04:43:46;32.37;;;17.83;;
7031;SDS011;3557;48.880;8.328;2024-01-11T04:46:14;30.90;;;17.97;;
7031;SDS011;3557;48.880;8.328;2024-01-11T04:48:42;29.83;;;17.93;;
7031;SDS011;3557;48.880;8.328;2024-01-11T04:51:10;32.33;;;17.97;;
7031;SDS011;3557;48.880;8.328;2024-01-11T04:53:39;32.33;;;18.87;;
7031;SDS011;3557;48.880;8.328;2024-01-11T04:56:07;33.83;;;17.77;;
7031;SDS011;3557;48.880;8.328;2024-01-11T04:58:38;31.33;;;18.20;;
7031;SDS011;3557;48.880;8.328;2024-01-11T05:01:11;30.50;;;18.17;;
7031;SDS011;3557;48.880;8.328;2024-01-11T05:03:39;29.97;;;17.23;;
7031;SDS011;3557;48.880;8.328;2024-01-11T05:06:06;32.33;;;18.67;;
7031;SDS011;3557;48.880;8.328;2024-01-11T05:08:33;31.00;;;18.07;;
7031;SDS011;3557;48.880;8.328;2024-01-11T05:11:01;32.43;;;18.50;;
7031;SDS011;3557;48.880;8.328;2024-01-11T05:13:28;34.17;;;18.60;;
7031;SDS011;3557;48.880;8.328;2024-01-11T05:15:56;37.17;;;20.43;;
7031;SDS011;3557;48.880;8.328;2024-01-11T05:18:24;36.97;;;19.83;;
7031;SDS011;3557;48.880;8.328;2024-01-11T05:20:52;30.83;;;17.70;;
7031;SDS011;3557;48.880;8.328;2024-01-11T05:23:19;33.20;;;18.23;;
7031;SDS011;3557;48.880;8.328;2024-01-11T05:25:46;35.30;;;19.57;;
7031;SDS011;3557;48.880;8.328;2024-01-11T05:28:14;34.13;;;19.83;;
7031;SDS011;3557;48.880;8.328;2024-01-11T05:30:41;34.33;;;18.40;;
7031;SDS011;3557;48.880;8.328;2024-01-11T05:33:08;30.63;;;18.07;;
7031;SDS011;3557;48.880;8.328;2024-01-11T05:35:37;32.73;;;18.63;;
7031;SDS011;3557;48.880;8.328;2024-01-11T05:38:04;31.00;;;18.00;;
7031;SDS011;3557;48.880;8.328;2024-01-11T05:40:32;33.83;;;18.87;;
7031;SDS011;3557;48.880;8.328;2024-01-11T05:42:59;32.80;;;18.93;;
7031;SDS011;3557;48.880;8.328;2024-01-11T05:45:26;35.10;;;18.60;;
7031;SDS011;3557;48.880;8.328;2024-01-11T05:47:54;34.00;;;18.90;;
7031;SDS011;3557;48.880;8.328;2024-01-11T05:50:21;32.23;;;18.57;;
7031;SDS011;3557;48.880;8.328;2024-01-11T05:52:51;34.73;;;18.83;;
7031;SDS011;3557;48.880;8.328;2024-01-11T05:55:21;33.47;;;18.67;;
7031;SDS011;3557;48.880;8.328;2024-01-11T05:57:48;32.57;;;18.37;;
7031;SDS011;3557;48.880;8.328;2024-01-11T06:00:16;33.43;;;18.43;;
7031;SDS011;3557;48.880;8.328;2024-01-11T06:02:44;34.40;;;18.50;;
7031;SDS011;3557;48.880;8.328;2024-01-11T06:05:12;29.70;;;17.23;;
7031;SDS011;3557;48.880;8.328;2024-01-11T06:07:40;33.90;;;19.07;;
7031;SDS011;3557;48.880;8.328;2024-01-11T06:10:09;35.33;;;19.53;;
7031;SDS011;3557;48.880;8.328;2024-01-11T06:12:36;41.97;;;23.13;;
7031;SDS011;3557;48.880;8.328;2024-01-11T06:15:04;37.03;;;21.60;;
7031;SDS011;3557;48.880;8.328;2024-01-11T06:17:32;38.23;;;21.90;;
7031;SDS011;3557;48.880;8.328;2024-01-11T06:20:00;39.43;;;21.90;;
7031;SDS011;3557;48.880;8.328;2024-01-11T06:22:28;36.87;;;19.93;;
7031;SDS011;3557;48.880;8.328;2024-01-11T06:24:56;40.23;;;21.03;;
7031;SDS011;3557;48.880;8.328;2024-01-11T06:27:26;45.37;;;24.40;;
7031;SDS011;3557;48.880;8.328;2024-01-11T06:29:53;57.50;;;30.70;;
7031;SDS011;3557;48.880;8.328;2024-01-11T06:32:20;64.70;;;32.50;;
7031;SDS011;3557;48.880;8.328;2024-01-11T06:34:48;43.77;;;26.60;;
7031;SDS011;3557;48.880;8.328;2024-01-11T06:37:16;61.90;;;31.67;;
7031;SDS011;3557;48.880;8.328;2024-01-11T06:39:44;38.40;;;21.70;;
7031;SDS011;3557;48.880;8.328;2024-01-11T06:42:11;36.50;;;20.87;;
7031;SDS011;3557;48.880;8.328;2024-01-11T06:44:41;45.83;;;26.30;;
7031;SDS011;3557;48.880;8.328;2024-01-11T06:47:08;41.80;;;22.07;;
7031;SDS011;3557;48.880;8.328;2024-01-11T06:49:37;38.00;;;21.23;;
7031;SDS011;3557;48.880;8.328;2024-01-11T06:52:05;33.27;;;19.87;;
7031;SDS011;3557;48.880;8.328;2024-01-11T06:54:33;37.20;;;20.03;;
7031;SDS011;3557;48.880;8.328;2024-01-11T06:57:01;36.17;;;20.67;;
7031;SDS011;3557;48.880;8.328;2024-01-11T06:59:29;37.60;;;20.13;;
7031;SDS011;3557;48.880;8.328;2024-01-11T07:01:57;32.57;;;18.50;;
7031;SDS011;3557;48.880;8.328;2024-01-11T07:04:25;34.90;;;19.40;;
7031;SDS011;3557;48.880;8.328;2024-01-11T07:06:52;32.20;;;19.37;;
7031;SDS011;3557;48.880;8.328;2024-01-11T07:09:19;36.53;;;19.83;;
7031;SDS011;3557;48.880;8.328;2024-01-11T07:11:47;32.80;;;19.53;;
7031;SDS011;3557;48.880;8.328;2024-01-11T07:14:14;35.20;;;20.00;;
7031;SDS011;3557;48.880;8.328;2024-01-11T07:16:42;36.40;;;20.03;;
7031;SDS011;3557;48.880;8.328;2024-01-11T07:19:11;36.00;;;20.50;;
7031;SDS011;3557;48.880;8.328;2024-01-11T07:21:38;39.30;;;20.37;;
7031;SDS011;3557;48.880;8.328;2024-01-11T07:24:06;39.00;;;22.67;;
7031;SDS011;3557;48.880;8.328;2024-01-11T07:26:33;37.63;;;20.10;;
7031;SDS011;3557;48.880;8.328;2024-01-11T07:29:00;38.40;;;21.07;;
7031;SDS011;3557;48.880;8.328;2024-01-11T07:31:28;36.37;;;20.13;;
7031;SDS011;3557;48.880;8.328;2024-01-11T07:33:55;40.70;;;20.80;;
7031;SDS011;3557;48.880;8.328;2024-01-11T07:36:24;36.60;;;20.23;;
7031;SDS011;3557;48.880;8.328;2024-01-11T07:38:51;36.80;;;20.50;;
7031;SDS011;3557;48.880;8.328;2024-01-11T07:41:21;39.07;;;22.80;;
7031;SDS011;3557;48.880;8.328;2024-01-11T07:43:48;38.00;;;19.90;;
7031;SDS011;3557;48.880;8.328;2024-01-11T07:46:16;35.43;;;20.13;;
7031;SDS011;3557;48.880;8.328;2024-01-11T07:48:43;34.60;;;19.70;;
7031;SDS011;3557;48.880;8.328;2024-01-11T07:51:10;37.27;;;20.30;;
7031;SDS011;3557;48.880;8.328;2024-01-11T07:53:39;38.20;;;20.57;;
7031;SDS011;3557;48.880;8.328;2024-01-11T07:56:06;33.10;;;18.33;;
7031;SDS011;3557;48.880;8.328;2024-01-11T07:58:34;33.37;;;19.07;;
7031;SDS011;3557;48.880;8.328;2024-01-11T08:01:02;36.17;;;18.20;;
7031;SDS011;3557;48.880;8.328;2024-01-11T08:03:30;31.73;;;18.40;;
7031;SDS011;3557;48.880;8.328;2024-01-11T08:05:59;34.23;;;19.30;;
7031;SDS011;3557;48.880;8.328;2024-01-11T08:08:27;36.40;;;18.77;;
7031;SDS011;3557;48.880;8.328;2024-01-11T08:10:56;33.40;;;18.90;;
7031;SDS011;3557;48.880;8.328;2024-01-11T08:13:23;36.30;;;19.57;;
7031;SDS011;3557;48.880;8.328;2024-01-11T08:15:50;31.23;;;18.47;;
7031;SDS011;3557;48.880;8.328;2024-01-11T08:18:18;29.23;;;17.33;;
7031;SDS011;3557;48.880;8.328;2024-01-11T08:20:46;34.60;;;18.93;;
7031;SDS011;3557;48.880;8.328;2024-01-11T08:23:13;33.47;;;18.90;;
7031;SDS011;3557;48.880;8.328;2024-01-11T08:25:41;30.20;;;17.67;;
7031;SDS011;3557;48.880;8.328;2024-01-11T08:28:10;30.50;;;17.80;;
7031;SDS011;3557;48.880;8.328;2024-01-11T08:30:37;29.40;;;17.20;;
7031;SDS011;3557;48.880;8.328;2024-01-11T08:33:04;28.73;;;16.80;;
7031;SDS011;3557;48.880;8.328;2024-01-11T08:35:32;29.90;;;17.63;;
7031;SDS011;3557;48.880;8.328;2024-01-11T08:38:00;30.23;;;18.03;;
7031;SDS011;3557;48.880;8.328;2024-01-11T08:40:28;28.00;;;16.10;;
7031;SDS011;3557;48.880;8.328;2024-01-11T08:42:55;27.93;;;17.30;;
7031;SDS011;3557;48.880;8.328;2024-01-11T08:45:24;31.77;;;17.40;;
7031;SDS011;3557;48.880;8.328;2024-01-11T08:47:52;27.03;;;16.83;;
7031;SDS011;3557;48.880;8.328;2024-01-11T08:50:19;29.00;;;17.63;;
7031;SDS011;3557;48.880;8.328;2024-01-11T08:52:46;30.50;;;17.80;;
7031;SDS011;3557;48.880;8.328;2024-01-11T08:55:14;30.57;;;17.73;;
7031;SDS011;3557;48.880;8.328;2024-01-11T08:57:41;30.73;;;17.57;;
7031;SDS011;3557;48.880;8.328;2024-01-11T09:00:09;27.93;;;18.07;;
7031;SDS011;3557;48.880;8.328;2024-01-11T09:02:44;28.07;;;18.10;;
7031;SDS011;3557;48.880;8.328;2024-01-11T09:05:13;31.43;;;18.60;;
7031;SDS011;3557;48.880;8.328;2024-01-11T09:07:41;31.53;;;18.80;;
7031;SDS011;3557;48.880;8.328;2024-01-11T09:10:08;32.13;;;18.80;;
7031;SDS011;3557;48.880;8.328;2024-01-11T09:12:37;31.77;;;18.27;;
7031;SDS011;3557;48.880;8.328;2024-01-11T09:15:05;31.97;;;17.97;;
7031;SDS011;3557;48.880;8.328;2024-01-11T09:17:33;31.37;;;18.23;;
7031;SDS011;3557;48.880;8.328;2024-01-11T09:20:02;28.57;;;17.50;;
7031;SDS011;3557;48.880;8.328;2024-01-11T09:22:30;29.93;;;18.67;;
7031;SDS011;3557;48.880;8.328;2024-01-11T09:24:57;29.13;;;17.67;;
7031;SDS011;3557;48.880;8.328;2024-01-11T09:27:25;27.10;;;17.17;;
7031;SDS011;3557;48.880;8.328;2024-01-11T09:29:52;26.40;;;17.53;;
7031;SDS011;3557;48.880;8.328;2024-01-11T09:32:19;29.40;;;17.33;;
7031;SDS011;3557;48.880;8.328;2024-01-11T09:34:47;27.87;;;16.57;;
7031;SDS011;3557;48.880;8.328;2024-01-11T09:37:17;31.57;;;17.73;;
7031;SDS011;3557;48.880;8.328;2024-01-11T09:39:44;35.10;;;19.27;;
7031;SDS011;3557;48.880;8.328;2024-01-11T09:42:12;26.63;;;17.27;;
7031;SDS011;3557;48.880;8.328;2024-01-11T09:44:39;26.87;;;17.30;;
7031;SDS011;3557;48.880;8.328;2024-01-11T09:47:08;29.23;;;18.17;;
7031;SDS011;3557;48.880;8.328;2024-01-11T09:49:38;33.93;;;18.90;;
7031;SDS011;3557;48.880;8.328;2024-01-11T09:52:07;29.20;;;18.30;;
7031;SDS011;3557;48.880;8.328;2024-01-11T09:54:37;29.03;;;18.20;;
7031;SDS011;3557;48.880;8.328;2024-01-11T09:57:05;29.73;;;17.97;;
7031;SDS011;3557;48.880;8.328;2024-01-11T09:59:33;28.47;;;18.57;;
7031;SDS011;3557;48.880;8.328;2024-01-11T10:02:02;31.47;;;18.07;;
7031;SDS011;3557;48.880;8.328;2024-01-11T10:04:33;28.03;;;18.47;;
7031;SDS011;3557;48.880;8.328;2024-01-11T10:07:02;56.53;;;19.90;;
7031;SDS011;3557;48.880;8.328;2024-01-11T10:09:32;28.10;;;18.83;;
7031;SDS011;3557;48.880;8.328;2024-01-11T10:12:01;28.73;;;18.47;;
7031;SDS011;3557;48.880;8.328;2024-01-11T10:14:30;31.10;;;18.63;;
7031;SDS011;3557;48.880;8.328;2024-01-11T10:16:57;30.27;;;18.90;;
7031;SDS011;3557;48.880;8.328;2024-01-11T10:19:25;29.23;;;19.20;;
7031;SDS011;3557;48.880;8.328;2024-01-11T10:21:52;30.20;;;19.13;;
7031;SDS011;3557;48.880;8.328;2024-01-11T10:24:20;30.63;;;19.47;;
7031;SDS011;3557;48.880;8.328;2024-01-11T10:26:51;30.00;;;18.87;;
7031;SDS011;3557;48.880;8.328;2024-01-11T10:29:20;30.80;;;20.87;;
7031;SDS011;3557;48.880;8.328;2024-01-11T10:31:49;32.07;;;19.20;;
7031;SDS011;3557;48.880;8.328;2024-01-11T10:34:16;35.80;;;19.60;;
7031;SDS011;3557;48.880;8.328;2024-01-11T10:36:45;30.50;;;19.40;;
7031;SDS011;3557;48.880;8.328;2024-01-11T10:39:13;42.53;;;25.17;;
7031;SDS011;3557;48.880;8.328;2024-01-11T10:41:45;28.83;;;19.07;;
7031;SDS011;3557;48.880;8.328;2024-01-11T10:44:16;32.33;;;20.70;;
7031;SDS011;3557;48.880;8.328;2024-01-11T10:46:48;34.50;;;21.07;;
7031;SDS011;3557;48.880;8.328;2024-01-11T10:49:17;28.90;;;19.87;;
7031;SDS011;3557;48.880;8.328;2024-01-11T10:51:47;35.87;;;19.40;;
7031;SDS011;3557;48.880;8.328;2024-01-11T10:54:19;30.70;;;20.10;;
7031;SDS011;3557;48.880;8.328;2024-01-11T10:56:47;32.20;;;20.00;;
7031;SDS011;3557;48.880;8.328;2024-01-11T10:59:15;30.50;;;19.73;;
7031;SDS011;3557;48.880;8.328;2024-01-11T11:01:45;28.50;;;19.07;;
7031;SDS011;3557;48.880;8.328;2024-01-11T11:04:13;34.03;;;19.83;;
7031;SDS011;3557;48.880;8.328;2024-01-11T11:06:41;29.33;;;18.97;;
7031;SDS011;3557;48.880;8.328;2024-01-11T11:09:10;30.00;;;20.70;;
7031;SDS011;3557;48.880;8.328;2024-01-11T11:11:38;32.47;;;20.17;;
7031;SDS011;3557;48.880;8.328;2024-01-11T11:14:06;27.53;;;19.20;;
7031;SDS011;3557;48.880;8.328;2024-01-11T11:16:35;27.37;;;18.77;;
7031;SDS011;3557;48.880;8.328;2024-01-11T11:19:04;28.37;;;19.70;;
7031;SDS011;3557;48.880;8.328;2024-01-11T11:21:31;28.90;;;18.50;;
7031;SDS011;3557;48.880;8.328;2024-01-11T11:23:58;31.90;;;18.83;;
7031;SDS011;3557;48.880;8.328;2024-01-11T11:26:26;27.43;;;18.57;;
7031;SDS011;3557;48.880;8.328;2024-01-11T11:28:54;31.50;;;20.07;;
7031;SDS011;3557;48.880;8.328;2024-01-11T11:31:34;28.80;;;19.63;;
7031;SDS011;3557;48.880;8.328;2024-01-11T11:34:04;31.67;;;19.57;;
7031;SDS011;3557;48.880;8.328;2024-01-11T11:36:32;26.87;;;18.50;;
7031;SDS011;3557;48.880;8.328;2024-01-11T11:39:01;31.00;;;19.20;;
7031;SDS011;3557;48.880;8.328;2024-01-11T11:41:30;30.77;;;19.27;;
7031;SDS011;3557;48.880;8.328;2024-01-11T11:44:01;28.07;;;19.40;;
7031;SDS011;3557;48.880;8.328;2024-01-11T11:46:29;28.80;;;18.77;;
7031;SDS011;3557;48.880;8.328;2024-01-11T11:48:57;29.60;;;18.40;;
7031;SDS011;3557;48.880;8.328;2024-01-11T11:51:26;31.47;;;19.43;;
7031;SDS011;3557;48.880;8.328;2024-01-11T11:53:54;29.63;;;18.23;;
7031;SDS011;3557;48.880;8.328;2024-01-11T11:56:22;26.70;;;18.30;;
7031;SDS011;3557;48.880;8.328;2024-01-11T11:58:49;36.60;;;19.37;;
7031;SDS011;3557;48.880;8.328;2024-01-11T12:01:20;29.30;;;19.03;;
7031;SDS011;3557;48.880;8.328;2024-01-11T12:03:48;32.47;;;19.77;;
7031;SDS011;3557;48.880;8.328;2024-01-11T12:06:16;32.47;;;19.50;;
7031;SDS011;3557;48.880;8.328;2024-01-11T12:08:46;28.20;;;19.50;;
7031;SDS011;3557;48.880;8.328;2024-01-11T12:11:14;28.83;;;18.90;;
7031;SDS011;3557;48.880;8.328;2024-01-11T12:13:45;31.30;;;19.33;;
7031;SDS011;3557;48.880;8.328;2024-01-11T12:16:13;28.27;;;18.60;;
7031;SDS011;3557;48.880;8.328;2024-01-11T12:18:41;26.43;;;18.23;;
7031;SDS011;3557;48.880;8.328;2024-01-11T12:21:08;29.27;;;19.23;;
7031;SDS011;3557;48.880;8.328;2024-01-11T12:23:38;35.17;;;20.00;;
7031;SDS011;3557;48.880;8.328;2024-01-11T12:26:25;30.17;;;19.40;;
7031;SDS011;3557;48.880;8.328;2024-01-11T12:28:53;30.87;;;18.43;;
7031;SDS011;3557;48.880;8.328;2024-01-11T12:31:21;31.13;;;19.37;;
7031;SDS011;3557;48.880;8.328;2024-01-11T12:33:48;29.10;;;19.33;;
7031;SDS011;3557;48.880;8.328;2024-01-11T12:36:16;32.67;;;20.03;;
7031;SDS011;3557;48.880;8.328;2024-01-11T12:38:47;30.93;;;20.07;;
7031;SDS011;3557;48.880;8.328;2024-01-11T12:41:15;31.83;;;19.13;;
7031;SDS011;3557;48.880;8.328;2024-01-11T12:43:43;30.17;;;19.17;;
7031;SDS011;3557;48.880;8.328;2024-01-11T12:46:11;31.47;;;19.87;;
7031;SDS011;3557;48.880;8.328;2024-01-11T12:48:38;30.43;;;19.20;;
7031;SDS011;3557;48.880;8.328;2024-01-11T12:51:06;28.93;;;18.87;;
7031;SDS011;3557;48.880;8.328;2024-01-11T12:53:33;26.90;;;18.83;;
7031;SDS011;3557;48.880;8.328;2024-01-11T12:56:04;29.03;;;19.10;;
7031;SDS011;3557;48.880;8.328;2024-01-11T12:58:35;29.80;;;19.43;;
7031;SDS011;3557;48.880;8.328;2024-01-11T13:01:03;30.47;;;19.03;;
7031;SDS011;3557;48.880;8.328;2024-01-11T13:03:32;27.93;;;18.53;;
7031;SDS011;3557;48.880;8.328;2024-01-11T13:06:01;27.30;;;19.23;;
7031;SDS011;3557;48.880;8.328;2024-01-11T13:08:30;30.47;;;19.77;;
7031;SDS011;3557;48.880;8.328;2024-01-11T13:10:57;29.43;;;18.80;;
7031;SDS011;3557;48.880;8.328;2024-01-11T13:13:27;32.63;;;19.53;;
7031;SDS011;3557;48.880;8.328;2024-01-11T13:15:55;31.87;;;19.57;;
7031;SDS011;3557;48.880;8.328;2024-01-11T13:18:23;31.77;;;18.93;;
7031;SDS011;3557;48.880;8.328;2024-01-11T13:20:50;29.77;;;19.07;;
7031;SDS011;3557;48.880;8.328;2024-01-11T13:23:18;29.40;;;19.03;;
7031;SDS011;3557;48.880;8.328;2024-01-11T13:25:47;30.73;;;19.23;;
7031;SDS011;3557;48.880;8.328;2024-01-11T13:28:16;30.33;;;18.97;;
7031;SDS011;3557;48.880;8.328;2024-01-11T13:30:45;29.77;;;19.00;;
7031;SDS011;3557;48.880;8.328;2024-01-11T13:33:14;30.90;;;20.27;;
7031;SDS011;3557;48.880;8.328;2024-01-11T13:35:42;26.87;;;18.77;;
7031;SDS011;3557;48.880;8.328;2024-01-11T13:38:10;30.10;;;19.03;;
7031;SDS011;3557;48.880;8.328;2024-01-11T13:40:37;30.67;;;19.10;;
7031;SDS011;3557;48.880;8.328;2024-01-11T13:43:05;29.00;;;18.93;;
7031;SDS011;3557;48.880;8.328;2024-01-11T13:45:32;27.83;;;19.17;;
7031;SDS011;3557;48.880;8.328;2024-01-11T13:48:02;28.63;;;18.70;;
7031;SDS011;3557;48.880;8.328;2024-01-11T13:50:31;30.50;;;19.50;;
7031;SDS011;3557;48.880;8.328;2024-01-11T13:52:58;32.53;;;19.63;;
7031;SDS011;3557;48.880;8.328;2024-01-11T13:55:27;27.63;;;18.20;;
7031;SDS011;3557;48.880;8.328;2024-01-11T13:58:02;28.57;;;18.43;;
7031;SDS011;3557;48.880;8.328;2024-01-11T14:00:30;27.87;;;18.37;;
7031;SDS011;3557;48.880;8.328;2024-01-11T14:02:58;27.13;;;18.13;;
7031;SDS011;3557;48.880;8.328;2024-01-11T14:05:26;28.07;;;18.77;;
7031;SDS011;3557;48.880;8.328;2024-01-11T14:07:54;27.80;;;18.23;;
7031;SDS011;3557;48.880;8.328;2024-01-11T14:10:24;27.73;;;19.03;;
7031;SDS011;3557;48.880;8.328;2024-01-11T14:12:51;28.17;;;18.57;;
7031;SDS011;3557;48.880;8.328;2024-01-11T14:15:18;29.83;;;18.70;;
7031;SDS011;3557;48.880;8.328;2024-01-11T14:17:46;33.10;;;19.13;;
7031;SDS011;3557;48.880;8.328;2024-01-11T14:20:14;33.07;;;18.80;;
7031;SDS011;3557;48.880;8.328;2024-01-11T14:22:42;25.70;;;17.60;;
7031;SDS011;3557;48.880;8.328;2024-01-11T14:25:12;30.37;;;19.30;;
7031;SDS011;3557;48.880;8.328;2024-01-11T14:27:40;26.23;;;17.73;;
7031;SDS011;3557;48.880;8.328;2024-01-11T14:30:07;26.97;;;17.97;;
7031;SDS011;3557;48.880;8.328;2024-01-11T14:32:36;28.03;;;18.87;;
7031;SDS011;3557;48.880;8.328;2024-01-11T14:35:04;27.80;;;17.97;;
7031;SDS011;3557;48.880;8.328;2024-01-11T14:37:32;27.60;;;18.40;;
7031;SDS011;3557;48.880;8.328;2024-01-11T14:40:02;28.57;;;18.00;;
7031;SDS011;3557;48.880;8.328;2024-01-11T14:42:31;27.53;;;17.50;;
7031;SDS011;3557;48.880;8.328;2024-01-11T14:44:58;48.07;;;27.47;;
7031;SDS011;3557;48.880;8.328;2024-01-11T14:47:25;27.87;;;19.60;;
7031;SDS011;3557;48.880;8.328;2024-01-11T14:49:53;24.83;;;17.50;;
7031;SDS011;3557;48.880;8.328;2024-01-11T14:52:20;29.63;;;20.27;;